createdAt,value
2022-10-21T00:01:47.324Z,95250.16
2022-10-21T00:05:31.851Z,95262.72
2022-10-21T00:09:14.578Z,95243.00
2022-10-21T00:12:57.246Z,95261.03
2022-10-21T00:16:56.749Z,95255.75
2022-10-21T00:20:41.241Z,95252.09
2022-10-21T00:24:23.879Z,95242.72
2022-10-21T00:28:06.559Z,95243.53
2022-10-21T00:32:03.797Z,95244.47
2022-10-21T00:35:53.179Z,95248.63
2022-10-21T00:39:35.848Z,95235.47
2022-10-21T00:43:18.894Z,95233.09
2022-10-21T00:47:14.385Z,95232.19
2022-10-21T00:51:00.067Z,95232.09
2022-10-21T00:54:43.642Z,95244.41
2022-10-21T00:58:28.281Z,95244.22
2022-10-21T01:02:19.986Z,95235.91
2022-10-21T01:06:08.088Z,95231.88
2022-10-21T01:09:50.853Z,95233.47
2022-10-21T01:13:41.076Z,95228.78
2022-10-21T01:17:44.022Z,95217.97
2022-10-21T01:21:32.807Z,95233.41
2022-10-21T01:25:28.195Z,95232.59
2022-10-21T01:29:42.461Z,95226.59
2022-10-21T01:33:44.864Z,95221.75
2022-10-21T01:37:35.513Z,95223.38
2022-10-21T01:41:26.042Z,95211.19
2022-10-21T01:45:13.613Z,95220.13
2022-10-21T01:49:04.093Z,95202.22
2022-10-21T01:52:49.891Z,95206.25
2022-10-21T01:56:33.241Z,95203.38
2022-10-21T02:00:16.128Z,95194.88
2022-10-21T02:04:02.813Z,95184.06
2022-10-21T02:07:45.496Z,95193.25
2022-10-21T02:11:28.953Z,95195.31
2022-10-21T02:15:12.872Z,95186.34
2022-10-21T02:18:56.046Z,95183.50
2022-10-21T02:22:40.984Z,95186.34
2022-10-21T02:26:24.740Z,95175.78
2022-10-21T02:30:08.924Z,95171.75
2022-10-21T02:33:59.175Z,95171.53
2022-10-21T02:37:48.061Z,95174.75
2022-10-21T02:41:31.739Z,95180.63
2022-10-21T02:45:17.635Z,95163.16
2022-10-21T02:49:00.263Z,95165.78
2022-10-21T02:52:44.329Z,95135.09
2022-10-21T02:56:27.513Z,95129.81
2022-10-21T03:00:11.376Z,95101.31
2022-10-21T03:03:56.742Z,95113.50
2022-10-21T03:07:39.771Z,95101.66
2022-10-21T03:11:24.063Z,95120.78
2022-10-21T03:15:07.476Z,95126.88
2022-10-21T03:18:50.105Z,95128.00
2022-10-21T03:22:34.408Z,95132.84
2022-10-21T03:26:17.041Z,95133.19
2022-10-21T03:30:01.081Z,95136.19
2022-10-21T03:33:43.785Z,95134.34
2022-10-21T03:37:26.450Z,95135.16
2022-10-21T03:41:09.095Z,95130.91
2022-10-21T03:44:51.772Z,95121.34
2022-10-21T03:48:35.834Z,95111.69
2022-10-21T03:52:18.587Z,95114.53
2022-10-21T03:56:01.486Z,95109.00
2022-10-21T03:59:45.716Z,95099.81
2022-10-21T04:03:28.822Z,95078.44
2022-10-21T04:07:12.862Z,95061.31
2022-10-21T04:10:58.067Z,95059.47
2022-10-21T04:14:40.880Z,95063.16
2022-10-21T04:18:23.535Z,95058.91
2022-10-21T04:22:06.206Z,95052.25
2022-10-21T04:25:50.253Z,95040.88
2022-10-21T04:29:33.097Z,95040.41
2022-10-21T04:33:15.761Z,95034.66
2022-10-21T04:37:01.148Z,95040.41
2022-10-21T04:40:46.778Z,95034.78
2022-10-21T04:44:30.789Z,95033.41
2022-10-21T04:48:15.520Z,95018.22
2022-10-21T04:51:58.149Z,95002.38
2022-10-21T04:55:41.163Z,94999.97
2022-10-21T04:59:23.823Z,94994.09
2022-10-21T05:03:08.108Z,94996.41
2022-10-21T05:06:50.784Z,94996.63
2022-10-21T05:10:33.530Z,94992.41
2022-10-21T05:14:20.005Z,94978.59
2022-10-21T05:18:05.394Z,94978.59
2022-10-21T05:21:51.196Z,94960.69
2022-10-21T05:25:34.505Z,94963.91
2022-10-21T05:30:20.732Z,94966.31
2022-10-21T05:34:03.507Z,94966.66
2022-10-21T05:37:47.555Z,94970.34
2022-10-21T05:41:30.193Z,94974.34
2022-10-21T05:45:22.654Z,94964.34
2022-10-21T05:49:05.289Z,94973.66
2022-10-21T05:52:49.295Z,94972.63
2022-10-21T05:56:32.023Z,94967.44
2022-10-21T06:00:24.651Z,94960.09
2022-10-21T06:04:07.496Z,94972.84
2022-10-21T06:07:51.478Z,94976.03
2022-10-21T06:11:34.185Z,94972.75
2022-10-21T06:15:24.488Z,94981.56
2022-10-21T06:19:08.016Z,94980.78
2022-10-21T06:22:52.008Z,94972.84
2022-10-21T06:26:36.911Z,94981.44
2022-10-21T06:30:49.269Z,94995.56
2022-10-21T06:34:31.974Z,94988.66
2022-10-21T06:38:16.251Z,94974.25
2022-10-21T06:41:59.724Z,94983.66
2022-10-21T06:46:03.419Z,94972.13
2022-10-21T06:49:46.068Z,94967.19
2022-10-21T06:53:32.061Z,94954.53
2022-10-21T06:57:16.661Z,94947.22
2022-10-21T07:01:16.747Z,94961.00
2022-10-21T07:05:10.620Z,94953.63
2022-10-21T07:08:58.173Z,94950.03
2022-10-21T07:12:44.394Z,94942.34
2022-10-21T07:16:28.368Z,94941.44
2022-10-21T07:20:11.446Z,94939.41
2022-10-21T07:23:59.124Z,94950.44
2022-10-21T07:27:44.677Z,94938.44
2022-10-21T07:31:33.017Z,94939.34
2022-10-21T07:35:15.804Z,94924.84
2022-10-21T07:39:03.382Z,94921.41
2022-10-21T07:42:46.117Z,94921.56
2022-10-21T07:46:28.942Z,94914.03
2022-10-21T07:50:11.615Z,94915.81
2022-10-21T07:53:56.266Z,94913.56
2022-10-21T07:57:40.316Z,94913.16
2022-10-21T08:01:23.713Z,94905.97
2022-10-21T08:05:07.166Z,94899.84
2022-10-21T08:08:49.959Z,94910.44
2022-10-21T08:12:32.668Z,94914.19
2022-10-21T08:16:31.878Z,94912.72
2022-10-21T08:20:14.543Z,94901.84
2022-10-21T08:23:57.219Z,94905.66
2022-10-21T08:27:39.855Z,94902.81
2022-10-21T08:31:23.422Z,94912.34
2022-10-21T08:35:07.993Z,94910.69
2022-10-21T08:38:50.880Z,94914.41
2022-10-21T08:42:33.712Z,94905.75
2022-10-21T08:46:38.779Z,94904.59
2022-10-21T08:50:24.778Z,94910.38
2022-10-21T08:54:13.115Z,94906.88
2022-10-21T08:57:55.877Z,94912.91
2022-10-21T09:01:42.212Z,94907.56
2022-10-21T09:05:52.457Z,94909.56
2022-10-21T09:09:40.573Z,94924.88
2022-10-21T09:13:30.771Z,94926.94
2022-10-21T09:17:22.200Z,94928.44
2022-10-21T09:21:11.462Z,94940.09
2022-10-21T09:24:59.715Z,94942.50
2022-10-21T09:28:42.625Z,94949.78
2022-10-21T09:32:27.649Z,94957.28
2022-10-21T09:36:18.134Z,94971.19
2022-10-21T09:40:07.909Z,94979.72
2022-10-21T09:43:50.891Z,94991.91
2022-10-21T09:47:33.632Z,95008.38
2022-10-21T09:51:20.823Z,95063.59
2022-10-21T09:55:04.744Z,95081.28
2022-10-21T09:58:51.661Z,95072.56
2022-10-21T10:02:37.722Z,95087.69
2022-10-21T10:06:40.497Z,95088.50
2022-10-21T10:10:30.864Z,95081.06
2022-10-21T10:14:27.139Z,95082.41
2022-10-21T10:18:20.981Z,95102.50
2022-10-21T10:22:14.205Z,95122.34
2022-10-21T10:25:57.505Z,95128.00
2022-10-21T10:29:42.400Z,95135.16
2022-10-21T10:33:27.320Z,95122.25
2022-10-21T10:37:21.620Z,95141.91
2022-10-21T10:41:06.714Z,95135.25
2022-10-21T10:44:53.167Z,95126.75
2022-10-21T10:48:38.039Z,95107.06
2022-10-21T10:52:24.383Z,95094.78
2022-10-21T10:56:19.228Z,95100.88
2022-10-21T11:00:06.449Z,95117.31
2022-10-21T11:03:53.877Z,95144.47
2022-10-21T11:07:43.128Z,95134.91
2022-10-21T11:11:27.571Z,95151.25
2022-10-21T11:15:15.584Z,95144.94
2022-10-21T11:19:02.794Z,95153.53
2022-10-21T11:22:55.475Z,95181.50
2022-10-21T11:26:46.778Z,95185.16
2022-10-21T11:30:36.267Z,95180.34
2022-10-21T11:34:23.873Z,95175.13
2022-10-21T11:38:31.479Z,95174.19
2022-10-21T11:42:19.324Z,95179.28
2022-10-21T11:46:06.157Z,95180.91
2022-10-21T11:49:57.039Z,95180.16
2022-10-21T11:53:51.634Z,95170.03
2022-10-21T11:57:37.964Z,95167.25
2022-10-21T12:01:30.199Z,95167.19
2022-10-21T12:05:22.251Z,95164.75
2022-10-21T12:09:08.402Z,95167.31
2022-10-21T12:12:52.389Z,95157.41
2022-10-21T12:16:35.417Z,95167.81
2022-10-21T12:20:23.743Z,95166.47
2022-10-21T12:24:20.279Z,95154.16
2022-10-21T12:28:06.164Z,95161.66
2022-10-21T12:31:54.078Z,95162.78
2022-10-21T12:35:50.339Z,95160.75
2022-10-21T12:39:50.784Z,95167.25
2022-10-21T12:43:33.497Z,95164.03
2022-10-21T12:47:26.290Z,95174.47
2022-10-21T12:51:19.615Z,95162.78
2022-10-21T12:55:08.630Z,95164.66
2022-10-21T12:58:57.686Z,95158.69
2022-10-21T13:02:58.403Z,95163.34
2022-10-21T13:06:54.935Z,95157.81
2022-10-21T13:10:39.026Z,95159.59
2022-10-21T13:14:36.338Z,95163.00
2022-10-21T13:18:51.517Z,95163.72
2022-10-21T13:22:36.212Z,95169.53
2022-10-21T13:26:28.456Z,95166.88
2022-10-21T13:30:11.264Z,95181.84
2022-10-21T13:33:55.058Z,95168.13
2022-10-21T13:37:41.023Z,95172.50
2022-10-21T13:41:28.366Z,95177.94
2022-10-21T13:45:24.870Z,95189.13
2022-10-21T13:49:07.892Z,95185.44
2022-10-21T13:52:50.746Z,95182.78
2022-10-21T13:56:36.741Z,95193.16
2022-10-21T14:00:22.266Z,95183.81
2022-10-21T14:04:13.937Z,95180.94
2022-10-21T14:07:57.143Z,95180.84
2022-10-21T14:11:44.898Z,95174.81
2022-10-21T14:15:36.960Z,95167.75
2022-10-21T14:19:22.106Z,95157.28
2022-10-21T14:23:06.139Z,95159.63
2022-10-21T14:26:50.551Z,95154.16
2022-10-21T14:30:34.717Z,95156.50
2022-10-21T14:34:23.872Z,95156.16
2022-10-21T14:38:26.217Z,95160.06
2022-10-21T14:42:14.129Z,95162.72
2022-10-21T14:45:56.801Z,95163.63
2022-10-21T14:49:45.735Z,95156.16
2022-10-21T14:53:32.837Z,95158.81
2022-10-21T14:57:31.019Z,95162.50
2022-10-21T15:01:17.501Z,95169.31
2022-10-21T15:05:01.168Z,95162.66
2022-10-21T15:08:45.859Z,95170.84
2022-10-21T15:12:33.575Z,95183.03
2022-10-21T15:16:20.122Z,95160.72
2022-10-21T15:20:03.706Z,95168.94
2022-10-21T15:23:52.180Z,95172.66
2022-10-21T15:27:42.546Z,95169.34
2022-10-21T15:31:30.061Z,95161.06
2022-10-21T15:35:14.931Z,95162.25
2022-10-21T15:38:57.703Z,95166.28
2022-10-21T15:42:41.862Z,95167.16
2022-10-21T15:46:26.000Z,95157.41
2022-10-21T15:50:16.497Z,95147.28
2022-10-21T15:53:59.251Z,95162.63
2022-10-21T15:57:44.509Z,95157.31
2022-10-21T16:01:28.280Z,95156.41
2022-10-21T16:05:11.439Z,95161.56
2022-10-21T16:08:54.158Z,95162.63
2022-10-21T16:12:37.155Z,95156.94
2022-10-21T16:16:27.920Z,95151.31
2022-10-21T16:23:58.387Z,95163.75
2022-10-21T16:27:55.600Z,95161.00
2022-10-21T16:31:40.438Z,95153.66
2022-10-21T16:35:23.110Z,95159.69
2022-10-21T16:39:08.969Z,95173.97
2022-10-21T16:42:52.379Z,95174.88
2022-10-21T16:46:37.520Z,95178.47
2022-10-21T16:50:23.279Z,95179.03
2022-10-21T16:54:06.213Z,95170.84
2022-10-21T16:57:51.334Z,95174.19
2022-10-21T17:01:34.335Z,95178.47
2022-10-21T17:05:17.333Z,95178.13
2022-10-21T17:09:03.498Z,95174.88
2022-10-21T17:12:46.212Z,95163.13
2022-10-21T17:16:30.983Z,95163.41
2022-10-21T17:20:16.807Z,95164.03
2022-10-21T17:24:03.364Z,95162.28
2022-10-21T17:27:46.234Z,95157.69
2022-10-21T17:31:30.537Z,95149.28
2022-10-21T17:35:18.603Z,95157.94
2022-10-21T17:39:02.785Z,95149.00
2022-10-21T17:42:45.832Z,95153.34
2022-10-21T17:46:28.525Z,95157.78
2022-10-21T17:50:12.212Z,95155.50
2022-10-21T17:53:55.930Z,95150.22
2022-10-21T17:57:39.956Z,95150.34
2022-10-21T18:01:24.215Z,95154.16
2022-10-21T18:05:10.667Z,95140.63
2022-10-21T18:08:53.711Z,95155.38
2022-10-21T18:12:36.805Z,95145.13
2022-10-21T18:16:23.103Z,95150.19
2022-10-21T18:20:07.680Z,95141.34
2022-10-21T18:23:52.607Z,95125.34
2022-10-21T18:27:35.347Z,95121.50
2022-10-21T18:31:21.667Z,95131.16
2022-10-21T18:35:04.714Z,95124.84
2022-10-21T18:38:49.239Z,95120.66
2022-10-21T18:42:31.960Z,95112.72
2022-10-21T18:46:15.020Z,95110.75
2022-10-21T18:49:59.418Z,95113.06
2022-10-21T18:53:42.848Z,95102.59
2022-10-21T18:57:25.705Z,95110.31
2022-10-21T19:01:09.350Z,95118.97
2022-10-21T19:04:52.378Z,95104.13
2022-10-21T19:08:36.467Z,95105.63
2022-10-21T19:12:23.154Z,95110.25
2022-10-21T19:16:07.006Z,95110.25
2022-10-21T19:19:50.827Z,95103.03
2022-10-21T19:23:34.201Z,95121.78
2022-10-21T19:27:18.252Z,95112.13
2022-10-21T19:31:01.218Z,95111.78
2022-10-21T19:34:44.548Z,95113.16
2022-10-21T19:38:43.318Z,95114.06
2022-10-21T19:42:28.796Z,95109.59
2022-10-21T19:46:12.556Z,95117.28
2022-10-21T19:49:55.375Z,95120.28
2022-10-21T19:53:38.068Z,95113.00
2022-10-21T19:57:22.654Z,95121.88
2022-10-21T20:01:09.184Z,95122.91
2022-10-21T20:04:51.941Z,95125.66
2022-10-21T20:08:35.685Z,95132.09
2022-10-21T20:12:18.390Z,95123.59
2022-10-21T20:16:01.660Z,95112.34
2022-10-21T20:19:47.922Z,95110.25
2022-10-21T20:23:31.626Z,95077.81
2022-10-21T20:27:14.333Z,95072.56
2022-10-21T20:30:58.072Z,95057.72
2022-10-21T20:34:43.082Z,95066.69
2022-10-21T20:38:27.161Z,95054.88
2022-10-21T20:42:09.858Z,95058.25
2022-10-21T20:45:52.499Z,95055.81
2022-10-21T20:49:35.268Z,95052.03
2022-10-21T20:53:17.963Z,95056.06
2022-10-21T20:57:01.973Z,95060.91
2022-10-21T21:00:46.482Z,95061.38
2022-10-21T21:04:29.952Z,95060.91
2022-10-21T21:08:13.737Z,95050.78
2022-10-21T21:11:56.540Z,95048.03
2022-10-21T21:15:40.630Z,95045.31
2022-10-21T21:19:23.346Z,95044.75
2022-10-21T21:23:06.052Z,95061.19
2022-10-21T21:26:48.841Z,95057.03
2022-10-21T21:30:31.547Z,95052.22
2022-10-21T21:34:15.701Z,95050.03
2022-10-21T21:37:58.338Z,95053.97
2022-10-21T21:41:41.095Z,95046.50
2022-10-21T21:45:23.723Z,95053.97
2022-10-21T21:49:06.681Z,95063.66
2022-10-21T21:52:50.812Z,95078.97
2022-10-21T21:56:33.547Z,95073.66
2022-10-21T22:00:16.536Z,95079.44
2022-10-21T22:03:59.558Z,95093.13
2022-10-21T22:07:42.506Z,95096.91
2022-10-21T22:11:29.016Z,95104.06
2022-10-21T22:15:29.690Z,95104.69
2022-10-21T22:19:17.318Z,95108.59
2022-10-21T22:22:59.973Z,95100.84
2022-10-21T22:26:44.402Z,95094.19
2022-10-21T22:30:27.012Z,95074.91
2022-10-21T22:34:11.869Z,95093.91
2022-10-21T22:37:54.900Z,95084.50
2022-10-21T22:41:37.596Z,95083.03
2022-10-21T22:45:21.760Z,95071.75
2022-10-21T22:49:05.002Z,95074.66
2022-10-21T22:52:47.716Z,95067.88
2022-10-21T22:56:30.393Z,95069.78
2022-10-21T23:00:14.188Z,95061.28
2022-10-21T23:03:58.384Z,95063.59
2022-10-21T23:07:41.209Z,95063.25
2022-10-21T23:11:23.953Z,95054.75
2022-10-21T23:15:07.634Z,95051.75
2022-10-21T23:18:50.305Z,95053.50
2022-10-21T23:22:34.293Z,95059.81
2022-10-21T23:26:17.562Z,95059.81
2022-10-21T23:30:00.270Z,95073.03
2022-10-21T23:33:42.886Z,95055.34
2022-10-21T23:37:25.710Z,95065.34
2022-10-21T23:41:09.708Z,95061.91
2022-10-21T23:44:52.302Z,95062.94
2022-10-21T23:48:35.058Z,95056.03
2022-10-21T23:52:17.730Z,95057.66
2022-10-21T23:56:01.145Z,95056.59
2022-10-21T23:59:45.176Z,95057.66
